sensor_id;sensor_type;location;lat;lon;timestamp;pressure;altitude;pressure_sealevel;temperature;humidity
31225;BME280;17847;31.524;74.366;2023-01-29T00:02:20;98763.16;;;9.81;74.82
31225;BME280;17847;31.524;74.366;2023-01-29T00:05:15;98767.09;;;9.70;75.32
31225;BME280;17847;31.524;74.366;2023-01-29T00:08:11;98752.84;;;9.86;75.89
31225;BME280;17847;31.524;74.366;2023-01-29T00:11:07;98754.66;;;9.85;75.77
31225;BME280;17847;31.524;74.366;2023-01-29T00:13:51;98760.78;;;9.86;75.27
31225;BME280;17847;31.524;74.366;2023-01-29T00:16:40;98758.47;;;9.83;75.65
31225;BME280;17847;31.524;74.366;2023-01-29T00:19:16;98773.34;;;9.84;75.67
31225;BME280;17847;31.524;74.366;2023-01-29T00:22:11;98769.97;;;9.90;74.88
31225;BME280;17847;31.524;74.366;2023-01-29T00:24:53;98768.97;;;9.91;74.62
31225;BME280;17847;31.524;74.366;2023-01-29T00:27:42;98768.00;;;9.77;74.81
31225;BME280;17847;31.524;74.366;2023-01-29T00:30:18;98761.06;;;9.76;75.07
31225;BME280;17847;31.524;74.366;2023-01-29T00:33:13;98768.25;;;9.82;75.29
31225;BME280;17847;31.524;74.366;2023-01-29T00:36:03;98774.63;;;9.88;74.98
31225;BME280;17847;31.524;74.366;2023-01-29T00:38:46;98780.34;;;9.91;75.88
31225;BME280;17847;31.524;74.366;2023-01-29T00:41:38;98781.19;;;9.92;75.10
31225;BME280;17847;31.524;74.366;2023-01-29T00:44:39;98769.16;;;9.89;75.59
31225;BME280;17847;31.524;74.366;2023-01-29T00:47:52;98778.94;;;9.74;75.47
31225;BME280;17847;31.524;74.366;2023-01-29T00:50:29;98785.53;;;9.64;75.30
31225;BME280;17847;31.524;74.366;2023-01-29T00:53:24;98780.69;;;9.67;75.83
31225;BME280;17847;31.524;74.366;2023-01-29T00:56:00;98775.56;;;9.66;76.40
31225;BME280;17847;31.524;74.366;2023-01-29T00:58:55;98773.75;;;9.81;75.31
31225;BME280;17847;31.524;74.366;2023-01-29T01:01:31;98778.38;;;9.79;75.58
31225;BME280;17847;31.524;74.366;2023-01-29T01:04:45;98785.50;;;9.78;75.04
31225;BME280;17847;31.524;74.366;2023-01-29T01:07:27;98788.22;;;9.85;75.59
31225;BME280;17847;31.524;74.366;2023-01-29T01:10:36;98778.28;;;9.87;75.88
31225;BME280;17847;31.524;74.366;2023-01-29T01:13:19;98784.59;;;9.86;75.49
31225;BME280;17847;31.524;74.366;2023-01-29T01:16:15;98790.69;;;9.86;75.52
31225;BME280;17847;31.524;74.366;2023-01-29T01:18:52;98792.44;;;9.79;75.25
31225;BME280;17847;31.524;74.366;2023-01-29T01:21:47;98793.44;;;9.78;75.67
31225;BME280;17847;31.524;74.366;2023-01-29T01:24:29;98788.13;;;9.78;75.07
31225;BME280;17847;31.524;74.366;2023-01-29T01:27:18;98788.41;;;9.83;74.59
31225;BME280;17847;31.524;74.366;2023-01-29T01:29:54;98779.69;;;9.68;74.55
31225;BME280;17847;31.524;74.366;2023-01-29T01:32:50;98785.25;;;9.73;74.73
31225;BME280;17847;31.524;74.366;2023-01-29T01:35:26;98787.06;;;9.73;75.20
31225;BME280;17847;31.524;74.366;2023-01-29T01:38:21;98780.59;;;9.75;74.62
31225;BME280;17847;31.524;74.366;2023-01-29T01:40:57;98786.09;;;9.59;74.94
31225;BME280;17847;31.524;74.366;2023-01-29T01:46:32;98790.16;;;9.62;75.60
31225;BME280;17847;31.524;74.366;2023-01-29T01:49:29;98795.44;;;9.76;75.00
31225;BME280;17847;31.524;74.366;2023-01-29T01:52:07;98789.75;;;9.94;74.35
31225;BME280;17847;31.524;74.366;2023-01-29T01:55:05;98799.13;;;9.46;74.08
31225;BME280;17847;31.524;74.366;2023-01-29T01:57:42;98800.22;;;9.37;75.43
31225;BME280;17847;31.524;74.366;2023-01-29T02:00:41;98810.88;;;9.29;75.56
31225;BME280;17847;31.524;74.366;2023-01-29T02:03:19;98813.88;;;9.26;76.30
31225;BME280;17847;31.524;74.366;2023-01-29T02:06:34;98816.63;;;9.32;76.55
31225;BME280;17847;31.524;74.366;2023-01-29T02:09:40;98823.03;;;9.38;77.01
31225;BME280;17847;31.524;74.366;2023-01-29T02:12:31;98813.72;;;9.42;75.86
31225;BME280;17847;31.524;74.366;2023-01-29T02:15:07;98818.28;;;9.33;75.78
31225;BME280;17847;31.524;74.366;2023-01-29T02:18:02;98823.06;;;9.30;76.24
31225;BME280;17847;31.524;74.366;2023-01-29T02:20:41;98838.41;;;9.34;75.92
31225;BME280;17847;31.524;74.366;2023-01-29T02:27:02;98838.59;;;9.33;76.21
31225;BME280;17847;31.524;74.366;2023-01-29T02:30:15;98840.41;;;9.32;75.00
31225;BME280;17847;31.524;74.366;2023-01-29T02:33:29;98847.44;;;9.40;74.97
31225;BME280;17847;31.524;74.366;2023-01-29T02:39:20;98870.41;;;9.54;74.50
31225;BME280;17847;31.524;74.366;2023-01-29T02:42:32;98886.00;;;9.64;73.62
31225;BME280;17847;31.524;74.366;2023-01-29T02:45:21;98892.31;;;9.77;74.22
31225;BME280;17847;31.524;74.366;2023-01-29T02:48:21;98881.81;;;9.84;72.96
31225;BME280;17847;31.524;74.366;2023-01-29T02:51:11;98889.75;;;9.99;73.14
31225;BME280;17847;31.524;74.366;2023-01-29T02:54:07;98888.09;;;10.12;73.24
31225;BME280;17847;31.524;74.366;2023-01-29T02:57:02;98903.72;;;10.22;71.75
31225;BME280;17847;31.524;74.366;2023-01-29T03:00:02;98918.41;;;10.60;73.10
31225;BME280;17847;31.524;74.366;2023-01-29T03:06:07;98922.06;;;10.80;71.77
31225;BME280;17847;31.524;74.366;2023-01-29T03:09:31;98918.94;;;10.92;71.12
31225;BME280;17847;31.524;74.366;2023-01-29T03:12:29;98927.13;;;11.18;68.76
31225;BME280;17847;31.524;74.366;2023-01-29T03:15:19;98938.28;;;11.35;67.67
31225;BME280;17847;31.524;74.366;2023-01-29T03:18:31;98962.84;;;11.22;68.60
31225;BME280;17847;31.524;74.366;2023-01-29T03:21:57;98973.84;;;11.19;68.40
31225;BME280;17847;31.524;74.366;2023-01-29T03:24:54;98988.59;;;11.49;67.70
31225;BME280;17847;31.524;74.366;2023-01-29T03:28:03;98996.25;;;11.65;67.44
31225;BME280;17847;31.524;74.366;2023-01-29T03:31:09;99002.78;;;11.84;65.53
31225;BME280;17847;31.524;74.366;2023-01-29T03:34:26;99015.06;;;11.92;65.78
31225;BME280;17847;31.524;74.366;2023-01-29T03:40:11;99017.22;;;12.44;66.27
31225;BME280;17847;31.524;74.366;2023-01-29T03:46:10;99031.69;;;12.76;64.60
31225;BME280;17847;31.524;74.366;2023-01-29T03:52:03;99051.72;;;12.72;64.43
31225;BME280;17847;31.524;74.366;2023-01-29T03:55:23;99058.19;;;13.03;63.97
31225;BME280;17847;31.524;74.366;2023-01-29T04:04:13;99074.53;;;13.74;60.51
31225;BME280;17847;31.524;74.366;2023-01-29T04:07:11;99081.13;;;14.11;60.23
31225;BME280;17847;31.524;74.366;2023-01-29T04:10:15;99079.66;;;14.55;59.51
31225;BME280;17847;31.524;74.366;2023-01-29T04:13:01;99075.88;;;14.75;56.89
31225;BME280;17847;31.524;74.366;2023-01-29T04:15:55;99058.78;;;15.72;55.42
31225;BME280;17847;31.524;74.366;2023-01-29T04:18:53;99072.50;;;15.76;54.60
31225;BME280;17847;31.524;74.366;2023-01-29T04:21:47;99083.16;;;15.82;54.13
31225;BME280;17847;31.524;74.366;2023-01-29T04:24:33;99078.44;;;15.84;54.02
31225;BME280;17847;31.524;74.366;2023-01-29T04:27:29;99088.56;;;16.50;52.65
31225;BME280;17847;31.524;74.366;2023-01-29T04:30:22;99097.50;;;16.80;49.73
31225;BME280;17847;31.524;74.366;2023-01-29T04:39:33;99100.19;;;16.98;49.90
31225;BME280;17847;31.524;74.366;2023-01-29T04:45:29;99091.03;;;16.88;48.94
31225;BME280;17847;31.524;74.366;2023-01-29T04:48:23;99082.78;;;17.26;48.44
31225;BME280;17847;31.524;74.366;2023-01-29T04:51:19;99072.50;;;18.06;47.48
31225;BME280;17847;31.524;74.366;2023-01-29T04:54:33;99072.94;;;17.20;47.60
31225;BME280;17847;31.524;74.366;2023-01-29T04:57:42;99082.94;;;16.94;50.19
31225;BME280;17847;31.524;74.366;2023-01-29T05:00:37;99074.31;;;16.92;49.84
31225;BME280;17847;31.524;74.366;2023-01-29T05:03:24;99088.47;;;16.81;48.08
31225;BME280;17847;31.524;74.366;2023-01-29T05:06:22;99082.94;;;17.13;49.54
31225;BME280;17847;31.524;74.366;2023-01-29T05:09:00;99093.66;;;16.76;47.90
31225;BME280;17847;31.524;74.366;2023-01-29T05:11:56;99071.28;;;16.71;48.36
31225;BME280;17847;31.524;74.366;2023-01-29T05:14:41;99072.16;;;16.83;48.29
31225;BME280;17847;31.524;74.366;2023-01-29T05:17:31;99072.91;;;16.90;49.09
31225;BME280;17847;31.524;74.366;2023-01-29T05:20:13;99072.81;;;16.96;48.68
31225;BME280;17847;31.524;74.366;2023-01-29T05:23:03;99085.06;;;17.04;48.68
31225;BME280;17847;31.524;74.366;2023-01-29T05:25:47;99085.97;;;17.16;48.42
31225;BME280;17847;31.524;74.366;2023-01-29T05:28:35;99070.28;;;17.49;48.05
31225;BME280;17847;31.524;74.366;2023-01-29T05:31:18;99070.53;;;17.89;45.82
31225;BME280;17847;31.524;74.366;2023-01-29T05:34:06;99055.34;;;17.12;46.09
31225;BME280;17847;31.524;74.366;2023-01-29T05:37:01;99058.41;;;17.57;44.40
31225;BME280;17847;31.524;74.366;2023-01-29T05:39:43;99063.03;;;17.38;46.70
31225;BME280;17847;31.524;74.366;2023-01-29T05:42:31;99067.91;;;17.71;45.72
31225;BME280;17847;31.524;74.366;2023-01-29T05:45:07;99044.19;;;17.86;45.79
31225;BME280;17847;31.524;74.366;2023-01-29T05:48:03;99032.22;;;18.01;45.32
31225;BME280;17847;31.524;74.366;2023-01-29T05:50:46;99039.44;;;18.12;44.82
31225;BME280;17847;31.524;74.366;2023-01-29T05:53:35;99025.91;;;18.07;44.36
31225;BME280;17847;31.524;74.366;2023-01-29T05:56:18;99022.41;;;17.53;44.14
31225;BME280;17847;31.524;74.366;2023-01-29T05:59:06;99019.94;;;17.70;44.91
31225;BME280;17847;31.524;74.366;2023-01-29T06:01:49;99016.56;;;17.74;44.90
31225;BME280;17847;31.524;74.366;2023-01-29T06:04:38;99022.88;;;17.91;45.88
31225;BME280;17847;31.524;74.366;2023-01-29T06:07:21;99014.03;;;18.03;46.04
31225;BME280;17847;31.524;74.366;2023-01-29T06:10:17;99037.09;;;18.04;44.85
31225;BME280;17847;31.524;74.366;2023-01-29T06:13:00;99034.53;;;18.09;44.38
31225;BME280;17847;31.524;74.366;2023-01-29T06:15:48;99015.19;;;18.18;43.85
31225;BME280;17847;31.524;74.366;2023-01-29T06:18:31;99023.47;;;18.40;46.03
31225;BME280;17847;31.524;74.366;2023-01-29T06:21:19;99024.63;;;18.21;45.49
31225;BME280;17847;31.524;74.366;2023-01-29T06:24:02;99017.28;;;18.39;44.90
31225;BME280;17847;31.524;74.366;2023-01-29T06:26:57;99018.44;;;18.20;44.34
31225;BME280;17847;31.524;74.366;2023-01-29T06:29:33;99018.34;;;18.27;43.65
31225;BME280;17847;31.524;74.366;2023-01-29T06:32:28;99011.88;;;18.51;43.98
31225;BME280;17847;31.524;74.366;2023-01-29T06:35:24;99026.50;;;18.55;44.35
31225;BME280;17847;31.524;74.366;2023-01-29T06:38:07;99021.94;;;18.44;44.73
31225;BME280;17847;31.524;74.366;2023-01-29T06:41:11;98992.22;;;18.22;46.31
31225;BME280;17847;31.524;74.366;2023-01-29T06:43:47;98994.41;;;18.72;45.16
31225;BME280;17847;31.524;74.366;2023-01-29T06:46:42;98987.06;;;18.67;45.50
31225;BME280;17847;31.524;74.366;2023-01-29T06:49:18;98988.00;;;18.38;46.77
31225;BME280;17847;31.524;74.366;2023-01-29T06:52:13;98978.47;;;18.54;46.64
31225;BME280;17847;31.524;74.366;2023-01-29T06:54:56;98975.47;;;18.04;46.98
31225;BME280;17847;31.524;74.366;2023-01-29T06:57:45;98978.69;;;18.40;47.51
31225;BME280;17847;31.524;74.366;2023-01-29T07:00:28;98978.25;;;18.32;46.71
31225;BME280;17847;31.524;74.366;2023-01-29T07:03:17;98960.75;;;18.06;46.40
31225;BME280;17847;31.524;74.366;2023-01-29T07:05:59;98955.50;;;17.88;46.48
31225;BME280;17847;31.524;74.366;2023-01-29T07:09:11;98964.00;;;18.20;47.41
31225;BME280;17847;31.524;74.366;2023-01-29T07:12:17;98955.56;;;18.51;46.58
31225;BME280;17847;31.524;74.366;2023-01-29T07:15:26;98955.41;;;18.18;46.46
31225;BME280;17847;31.524;74.366;2023-01-29T07:18:30;98938.94;;;18.26;46.35
31225;BME280;17847;31.524;74.366;2023-01-29T07:21:39;98939.09;;;18.08;48.28
31225;BME280;17847;31.524;74.366;2023-01-29T07:24:42;98935.78;;;18.29;49.33
31225;BME280;17847;31.524;74.366;2023-01-29T07:27:50;98930.38;;;18.52;49.39
31225;BME280;17847;31.524;74.366;2023-01-29T07:30:58;98927.66;;;18.12;50.93
31225;BME280;17847;31.524;74.366;2023-01-29T07:34:07;98931.66;;;17.86;51.89
31225;BME280;17847;31.524;74.366;2023-01-29T07:37:16;98925.47;;;17.98;51.75
31225;BME280;17847;31.524;74.366;2023-01-29T07:40:18;98912.06;;;17.98;51.93
31225;BME280;17847;31.524;74.366;2023-01-29T07:43:27;98904.34;;;18.13;52.78
31225;BME280;17847;31.524;74.366;2023-01-29T07:46:24;98913.13;;;17.85;53.98
31225;BME280;17847;31.524;74.366;2023-01-29T07:49:39;98899.56;;;18.15;53.60
31225;BME280;17847;31.524;74.366;2023-01-29T07:52:35;98902.28;;;18.03;53.82
31225;BME280;17847;31.524;74.366;2023-01-29T07:55:51;98893.09;;;17.76;55.11
31225;BME280;17847;31.524;74.366;2023-01-29T07:58:47;98887.19;;;18.25;54.49
31225;BME280;17847;31.524;74.366;2023-01-29T08:02:03;98886.31;;;18.08;54.91
31225;BME280;17847;31.524;74.366;2023-01-29T08:05:07;98867.72;;;17.78;54.43
31225;BME280;17847;31.524;74.366;2023-01-29T08:08:15;98869.22;;;17.86;54.82
31225;BME280;17847;31.524;74.366;2023-01-29T08:11:18;98864.16;;;18.13;55.07
31225;BME280;17847;31.524;74.366;2023-01-29T08:14:26;98857.41;;;17.99;54.37
31225;BME280;17847;31.524;74.366;2023-01-29T08:17:29;98856.22;;;18.18;54.65
31225;BME280;17847;31.524;74.366;2023-01-29T08:21:00;98849.09;;;18.12;54.70
31225;BME280;17847;31.524;74.366;2023-01-29T08:24:06;98852.31;;;17.85;54.52
31225;BME280;17847;31.524;74.366;2023-01-29T08:27:24;98855.00;;;17.62;55.04
31225;BME280;17847;31.524;74.366;2023-01-29T08:30:29;98853.16;;;17.74;55.30
31225;BME280;17847;31.524;74.366;2023-01-29T08:33:44;98827.97;;;17.75;54.98
31225;BME280;17847;31.524;74.366;2023-01-29T08:36:40;98830.78;;;17.69;55.39
31225;BME280;17847;31.524;74.366;2023-01-29T08:39:57;98828.31;;;17.90;55.78
31225;BME280;17847;31.524;74.366;2023-01-29T08:42:57;98831.50;;;17.64;56.46
31225;BME280;17847;31.524;74.366;2023-01-29T08:46:14;98836.25;;;17.85;56.10
31225;BME280;17847;31.524;74.366;2023-01-29T08:49:10;98826.44;;;17.79;56.48
31225;BME280;17847;31.524;74.366;2023-01-29T08:52:25;98828.53;;;17.89;56.91
31225;BME280;17847;31.524;74.366;2023-01-29T08:55:28;98809.91;;;17.82;56.47
31225;BME280;17847;31.524;74.366;2023-01-29T08:58:37;98818.75;;;17.94;57.08
31225;BME280;17847;31.524;74.366;2023-01-29T09:01:40;98823.19;;;17.89;57.50
31225;BME280;17847;31.524;74.366;2023-01-29T09:04:48;98823.50;;;17.92;56.88
31225;BME280;17847;31.524;74.366;2023-01-29T09:07:51;98818.91;;;17.76;57.01
31225;BME280;17847;31.524;74.366;2023-01-29T09:11:00;98817.63;;;17.67;56.62
31225;BME280;17847;31.524;74.366;2023-01-29T09:14:03;98816.25;;;17.65;57.06
31225;BME280;17847;31.524;74.366;2023-01-29T09:17:21;98812.16;;;17.74;56.38
31225;BME280;17847;31.524;74.366;2023-01-29T09:20:18;98808.53;;;17.57;57.02
31225;BME280;17847;31.524;74.366;2023-01-29T09:23:13;98798.41;;;17.70;57.00
31225;BME280;17847;31.524;74.366;2023-01-29T09:25:49;98798.75;;;17.62;57.29
31225;BME280;17847;31.524;74.366;2023-01-29T09:28:45;98798.63;;;17.45;57.56
31225;BME280;17847;31.524;74.366;2023-01-29T09:31:27;98802.81;;;17.53;58.66
31225;BME280;17847;31.524;74.366;2023-01-29T09:34:16;98803.66;;;17.65;58.30
31225;BME280;17847;31.524;74.366;2023-01-29T09:36:52;98813.31;;;17.43;58.81
31225;BME280;17847;31.524;74.366;2023-01-29T09:39:49;98809.13;;;17.24;59.35
31225;BME280;17847;31.524;74.366;2023-01-29T09:42:42;98809.22;;;17.40;59.74
31225;BME280;17847;31.524;74.366;2023-01-29T09:45:35;98806.34;;;17.30;60.55
31225;BME280;17847;31.524;74.366;2023-01-29T09:48:26;98821.69;;;17.23;61.48
31225;BME280;17847;31.524;74.366;2023-01-29T09:51:37;98822.97;;;17.21;61.04
31225;BME280;17847;31.524;74.366;2023-01-29T09:54:34;98822.59;;;17.05;61.08
31225;BME280;17847;31.524;74.366;2023-01-29T09:57:56;98816.13;;;17.25;61.30
31225;BME280;17847;31.524;74.366;2023-01-29T10:00:58;98823.44;;;17.18;60.85
31225;BME280;17847;31.524;74.366;2023-01-29T10:09:55;98810.13;;;16.99;60.87
31225;BME280;17847;31.524;74.366;2023-01-29T10:19:16;98799.91;;;16.96;60.95
31225;BME280;17847;31.524;74.366;2023-01-29T10:25:08;98788.38;;;16.84;61.80
31225;BME280;17847;31.524;74.366;2023-01-29T10:27:59;98793.94;;;16.71;62.26
31225;BME280;17847;31.524;74.366;2023-01-29T10:30:47;98820.94;;;16.51;62.21
31225;BME280;17847;31.524;74.366;2023-01-29T10:33:41;98824.72;;;16.32;62.93
31225;BME280;17847;31.524;74.366;2023-01-29T10:36:46;98838.44;;;16.36;62.41
31225;BME280;17847;31.524;74.366;2023-01-29T10:39:30;98832.34;;;16.29;62.46
31225;BME280;17847;31.524;74.366;2023-01-29T10:42:36;98832.81;;;16.26;62.59
31225;BME280;17847;31.524;74.366;2023-01-29T10:45:53;98823.47;;;16.16;63.08
31225;BME280;17847;31.524;74.366;2023-01-29T10:48:54;98810.09;;;16.16;63.25
31225;BME280;17847;31.524;74.366;2023-01-29T10:51:51;98806.06;;;15.96;63.84
31225;BME280;17847;31.524;74.366;2023-01-29T11:00:59;98806.59;;;15.86;67.20
31225;BME280;17847;31.524;74.366;2023-01-29T11:03:41;98808.38;;;15.74;69.35
31225;BME280;17847;31.524;74.366;2023-01-29T11:06:32;98803.91;;;15.68;69.93
31225;BME280;17847;31.524;74.366;2023-01-29T11:09:43;98798.34;;;15.51;70.71
31225;BME280;17847;31.524;74.366;2023-01-29T11:12:34;98790.63;;;15.43;71.07
31225;BME280;17847;31.524;74.366;2023-01-29T11:15:29;98809.34;;;15.37;71.59
31225;BME280;17847;31.524;74.366;2023-01-29T11:18:18;98808.66;;;15.23;72.57
31225;BME280;17847;31.524;74.366;2023-01-29T11:21:03;98807.38;;;15.07;74.72
31225;BME280;17847;31.524;74.366;2023-01-29T11:24:14;98820.31;;;14.79;76.79
31225;BME280;17847;31.524;74.366;2023-01-29T11:26:59;98805.94;;;14.55;78.17
31225;BME280;17847;31.524;74.366;2023-01-29T11:29:54;98812.09;;;14.56;78.06
31225;BME280;17847;31.524;74.366;2023-01-29T11:32:34;98801.25;;;14.51;78.73
31225;BME280;17847;31.524;74.366;2023-01-29T11:35:29;98797.59;;;14.45;79.46
31225;BME280;17847;31.524;74.366;2023-01-29T11:38:28;98794.41;;;14.23;79.97
31225;BME280;17847;31.524;74.366;2023-01-29T11:41:06;98816.50;;;14.30;80.35
31225;BME280;17847;31.524;74.366;2023-01-29T11:44:32;98820.41;;;14.28;80.35
31225;BME280;17847;31.524;74.366;2023-01-29T11:47:20;98819.66;;;14.14;80.54
31225;BME280;17847;31.524;74.366;2023-01-29T11:50:21;98821.06;;;14.23;80.46
31225;BME280;17847;31.524;74.366;2023-01-29T11:52:58;98828.03;;;14.24;80.31
31225;BME280;17847;31.524;74.366;2023-01-29T11:55:55;98826.19;;;14.25;80.54
31225;BME280;17847;31.524;74.366;2023-01-29T11:58:32;98827.59;;;14.27;81.02
31225;BME280;17847;31.524;74.366;2023-01-29T12:01:36;98837.59;;;14.32;80.95
31225;BME280;17847;31.524;74.366;2023-01-29T12:04:23;98827.78;;;14.32;80.77
31225;BME280;17847;31.524;74.366;2023-01-29T12:07:16;98828.41;;;14.28;81.09
31225;BME280;17847;31.524;74.366;2023-01-29T12:09:59;98822.22;;;14.34;81.06
31225;BME280;17847;31.524;74.366;2023-01-29T12:12:47;98836.34;;;14.34;81.43
31225;BME280;17847;31.524;74.366;2023-01-29T12:15:30;98841.69;;;14.41;80.81
31225;BME280;17847;31.524;74.366;2023-01-29T12:18:38;98838.78;;;14.49;80.57
31225;BME280;17847;31.524;74.366;2023-01-29T12:41:38;98841.81;;;14.53;78.28
31225;BME280;17847;31.524;74.366;2023-01-29T12:44:20;98835.91;;;14.51;77.26
31225;BME280;17847;31.524;74.366;2023-01-29T12:47:45;98850.81;;;14.58;77.34
31225;BME280;17847;31.524;74.366;2023-01-29T12:50:32;98845.69;;;14.57;75.96
31225;BME280;17847;31.524;74.366;2023-01-29T12:53:58;98846.75;;;14.49;75.93
31225;BME280;17847;31.524;74.366;2023-01-29T13:08:47;98833.63;;;14.48;74.72
31225;BME280;17847;31.524;74.366;2023-01-29T13:11:50;98836.16;;;14.43;74.81
31225;BME280;17847;31.524;74.366;2023-01-29T13:17:40;98834.50;;;14.42;75.54
31225;BME280;17847;31.524;74.366;2023-01-29T13:20:32;98844.75;;;14.45;75.92
31225;BME280;17847;31.524;74.366;2023-01-29T13:23:37;98835.72;;;14.46;76.17
31225;BME280;17847;31.524;74.366;2023-01-29T13:26:21;98849.25;;;14.44;76.60
31225;BME280;17847;31.524;74.366;2023-01-29T13:29:27;98843.53;;;14.41;76.80
31225;BME280;17847;31.524;74.366;2023-01-29T13:32:30;98843.47;;;14.47;76.85
31225;BME280;17847;31.524;74.366;2023-01-29T13:35:13;98846.13;;;14.54;76.65
31225;BME280;17847;31.524;74.366;2023-01-29T13:38:05;98841.63;;;14.48;77.05
31225;BME280;17847;31.524;74.366;2023-01-29T13:41:04;98837.75;;;14.44;77.46
31225;BME280;17847;31.524;74.366;2023-01-29T13:43:54;98832.41;;;14.50;77.47
31225;BME280;17847;31.524;74.366;2023-01-29T13:46:39;98834.47;;;14.48;77.68
31225;BME280;17847;31.524;74.366;2023-01-29T13:55:28;98843.06;;;14.50;76.87
31225;BME280;17847;31.524;74.366;2023-01-29T13:58:16;98836.72;;;14.51;76.54
31225;BME280;17847;31.524;74.366;2023-01-29T14:01:05;98835.63;;;14.59;76.80
31225;BME280;17847;31.524;74.366;2023-01-29T14:03:50;98836.06;;;14.56;76.34
31225;BME280;17847;31.524;74.366;2023-01-29T14:06:48;98833.22;;;14.51;76.11
31225;BME280;17847;31.524;74.366;2023-01-29T14:15:24;98839.34;;;14.58;75.69
31225;BME280;17847;31.524;74.366;2023-01-29T14:18:21;98840.16;;;14.52;75.99
31225;BME280;17847;31.524;74.366;2023-01-29T14:21:16;98845.09;;;14.55;76.05
31225;BME280;17847;31.524;74.366;2023-01-29T14:24:19;98836.91;;;14.50;76.09
31225;BME280;17847;31.524;74.366;2023-01-29T14:27:04;98853.72;;;14.50;76.39
31225;BME280;17847;31.524;74.366;2023-01-29T14:30:07;98853.16;;;14.42;76.32
31225;BME280;17847;31.524;74.366;2023-01-29T14:32:57;98861.75;;;14.44;76.07
31225;BME280;17847;31.524;74.366;2023-01-29T14:35:55;98875.88;;;14.51;76.27
31225;BME280;17847;31.524;74.366;2023-01-29T14:38:32;98875.44;;;14.54;76.14
31225;BME280;17847;31.524;74.366;2023-01-29T14:41:36;98876.66;;;14.58;76.12
31225;BME280;17847;31.524;74.366;2023-01-29T14:50:36;98887.66;;;14.68;75.33
31225;BME280;17847;31.524;74.366;2023-01-29T14:53:42;98894.41;;;14.70;74.69
31225;BME280;17847;31.524;74.366;2023-01-29T14:56:35;98889.25;;;14.75;74.82
31225;BME280;17847;31.524;74.366;2023-01-29T14:59:38;98880.22;;;14.76;75.15
31225;BME280;17847;31.524;74.366;2023-01-29T15:02:36;98880.44;;;14.75;74.81
31225;BME280;17847;31.524;74.366;2023-01-29T15:05:31;98868.78;;;14.69;74.59
31225;BME280;17847;31.524;74.366;2023-01-29T15:08:43;98866.69;;;14.78;74.56
31225;BME280;17847;31.524;74.366;2023-01-29T15:11:51;98865.44;;;14.80;74.27
31225;BME280;17847;31.524;74.366;2023-01-29T15:14:42;98877.19;;;14.73;74.30
31225;BME280;17847;31.524;74.366;2023-01-29T15:20:34;98881.88;;;14.77;74.12
31225;BME280;17847;31.524;74.366;2023-01-29T15:23:28;98887.78;;;14.79;74.15
31225;BME280;17847;31.524;74.366;2023-01-29T15:26:16;98902.78;;;14.74;74.29
31225;BME280;17847;31.524;74.366;2023-01-29T15:29:22;98905.63;;;14.79;75.05
31225;BME280;17847;31.524;74.366;2023-01-29T15:32:05;98900.75;;;14.76;74.99
31225;BME280;17847;31.524;74.366;2023-01-29T15:34:56;98906.16;;;14.63;75.03
31225;BME280;17847;31.524;74.366;2023-01-29T15:37:39;98910.28;;;14.59;74.93
31225;BME280;17847;31.524;74.366;2023-01-29T15:40:27;98903.50;;;14.56;75.93
31225;BME280;17847;31.524;74.366;2023-01-29T15:43:24;98905.97;;;14.58;75.51
31225;BME280;17847;31.524;74.366;2023-01-29T15:46:23;98926.06;;;14.54;75.48
31225;BME280;17847;31.524;74.366;2023-01-29T15:49:10;98918.28;;;14.52;76.26
31225;BME280;17847;31.524;74.366;2023-01-29T15:52:06;98934.91;;;14.48;75.43
31225;BME280;17847;31.524;74.366;2023-01-29T15:54:49;98928.75;;;14.47;75.08
31225;BME280;17847;31.524;74.366;2023-01-29T15:57:40;98928.34;;;14.50;75.33
31225;BME280;17847;31.524;74.366;2023-01-29T16:00:26;98943.47;;;14.56;75.40
31225;BME280;17847;31.524;74.366;2023-01-29T16:03:15;98940.25;;;14.48;75.38
31225;BME280;17847;31.524;74.366;2023-01-29T16:05:59;98958.31;;;14.46;75.85
31225;BME280;17847;31.524;74.366;2023-01-29T16:08:52;98960.97;;;14.46;76.22
31225;BME280;17847;31.524;74.366;2023-01-29T16:11:35;98956.88;;;14.30;76.81
31225;BME280;17847;31.524;74.366;2023-01-29T16:14:24;98955.25;;;14.35;76.81
31225;BME280;17847;31.524;74.366;2023-01-29T16:17:29;98965.28;;;14.33;76.81
31225;BME280;17847;31.524;74.366;2023-01-29T16:20:44;98975.53;;;14.30;76.83
31225;BME280;17847;31.524;74.366;2023-01-29T16:23:40;98981.09;;;14.28;76.46
31225;BME280;17847;31.524;74.366;2023-01-29T16:26:33;98974.09;;;14.27;76.69
31225;BME280;17847;31.524;74.366;2023-01-29T16:29:29;98957.72;;;14.24;76.49
31225;BME280;17847;31.524;74.366;2023-01-29T16:32:19;98967.38;;;14.25;76.28
31225;BME280;17847;31.524;74.366;2023-01-29T16:35:02;98960.22;;;14.12;76.80
31225;BME280;17847;31.524;74.366;2023-01-29T16:37:52;98962.88;;;14.12;77.24
31225;BME280;17847;31.524;74.366;2023-01-29T16:40:37;98954.69;;;14.14;76.79
31225;BME280;17847;31.524;74.366;2023-01-29T16:46:35;98945.88;;;14.13;76.83
31225;BME280;17847;31.524;74.366;2023-01-29T16:52:22;98958.16;;;14.08;76.53
31225;BME280;17847;31.524;74.366;2023-01-29T16:58:07;98959.63;;;13.97;76.56
31225;BME280;17847;31.524;74.366;2023-01-29T17:01:00;98972.53;;;14.00;76.87
31225;BME280;17847;31.524;74.366;2023-01-29T17:03:57;98963.97;;;13.85;77.13
31225;BME280;17847;31.524;74.366;2023-01-29T17:06:43;98966.81;;;13.90;76.89
31225;BME280;17847;31.524;74.366;2023-01-29T17:09:34;98961.47;;;13.90;77.23
31225;BME280;17847;31.524;74.366;2023-01-29T17:12:20;98961.31;;;13.85;77.05
31225;BME280;17847;31.524;74.366;2023-01-29T17:15:44;98958.00;;;13.76;77.43
31225;BME280;17847;31.524;74.366;2023-01-29T17:18:27;98960.28;;;13.79;76.99
31225;BME280;17847;31.524;74.366;2023-01-29T17:21:16;98968.03;;;13.81;77.38